Time;durP1;ratioP1;P1;durP2;ratioP2;P2;SDS_P1;SDS_P2;PMS_P1;PMS_P2;Temp;Humidity;BMP_temperature;BMP_pressure;BME280_temperature;BME280_humidity;BME280_pressure;Samples;Min_cycle;Max_cycle;Signal;HPM_P1;HPM_P2
2023/07/29 00:02:10;;;;;;;6.05;4.18;;;;;;;16.57;100.00;98470.34;5139586;28;20043;-64
2023/07/29 00:04:36;;;;;;;6.63;4.10;;;;;;;16.53;100.00;98472.38;5139045;28;20085;-61
2023/07/29 00:07:01;;;;;;;7.18;4.30;;;;;;;16.46;100.00;98456.69;5139207;27;20324;-61
2023/07/29 00:09:27;;;;;;;5.93;4.30;;;;;;;16.52;100.00;98445.91;5139167;28;20053;-61
2023/07/29 00:11:53;;;;;;;7.25;5.28;;;;;;;16.39;100.00;98445.75;5139228;28;20093;-62
2023/07/29 00:14:19;;;;;;;9.20;4.53;;;;;;;16.31;100.00;98429.69;5139065;28;20482;-63
2023/07/29 00:16:46;;;;;;;6.47;4.35;;;;;;;16.33;100.00;98425.31;5138821;28;20049;-64
2023/07/29 00:19:12;;;;;;;6.53;4.50;;;;;;;16.37;100.00;98419.72;5139031;28;20146;-63
2023/07/29 00:21:38;;;;;;;9.93;8.00;;;;;;;16.34;100.00;98409.47;5138946;28;20057;-63
2023/07/29 00:24:04;;;;;;;10.07;4.63;;;;;;;16.28;100.00;98414.72;5139059;28;20051;-62
2023/07/29 00:26:30;;;;;;;8.35;4.50;;;;;;;16.29;100.00;98413.50;5138743;28;20055;-62
2023/07/29 00:28:56;;;;;;;7.40;6.70;;;;;;;16.24;100.00;98408.47;5139086;28;20047;-62
2023/07/29 00:31:22;;;;;;;6.00;4.47;;;;;;;16.17;100.00;98397.53;5138654;28;20477;-63
2023/07/29 00:33:48;;;;;;;6.45;4.95;;;;;;;16.25;100.00;98385.13;5139076;28;20078;-63
2023/07/29 00:36:14;;;;;;;6.70;4.40;;;;;;;16.28;100.00;98405.63;5138430;27;20057;-63
2023/07/29 00:38:40;;;;;;;6.32;5.75;;;;;;;16.09;100.00;98404.34;5138631;28;20047;-63
2023/07/29 00:41:07;;;;;;;6.50;5.90;;;;;;;15.80;100.00;98398.53;5138810;28;20142;-63
2023/07/29 00:43:33;;;;;;;17.27;4.70;;;;;;;15.70;100.00;98380.91;5138660;28;20137;-63
2023/07/29 00:46:00;;;;;;;9.38;4.93;;;;;;;15.54;100.00;98374.00;5138524;28;20043;-63
2023/07/29 00:48:26;;;;;;;7.00;4.78;;;;;;;15.62;100.00;98360.84;5138501;28;20065;-62
2023/07/29 00:50:54;;;;;;;10.68;5.70;;;;;;;15.83;100.00;98334.09;5138576;28;20130;-63
2023/07/29 00:53:20;;;;;;;10.07;5.55;;;;;;;16.03;100.00;98336.91;5138367;28;20146;-63
2023/07/29 00:55:46;;;;;;;9.07;4.93;;;;;;;15.59;100.00;98363.66;5138689;28;20050;-63
2023/07/29 00:58:12;;;;;;;11.45;5.13;;;;;;;15.90;100.00;98359.66;5138254;28;20051;-61
2023/07/29 01:00:39;;;;;;;8.80;5.18;;;;;;;15.69;100.00;98351.69;5138680;28;20126;-62
2023/07/29 01:03:05;;;;;;;12.35;5.70;;;;;;;15.51;100.00;98335.38;5137608;28;20153;-62
2023/07/29 01:05:39;;;;;;;13.05;5.10;;;;;;;15.33;100.00;98312.75;5138052;28;20141;-62
2023/07/29 01:08:13;;;;;;;13.38;5.38;;;;;;;15.36;100.00;98304.44;5138324;27;20138;-61
2023/07/29 01:10:51;;;;;;;8.82;4.90;;;;;;;15.65;100.00;98293.69;5138123;28;20141;-62
2023/07/29 01:13:23;;;;;;;13.88;6.50;;;;;;;15.44;100.00;98294.06;5138297;28;20140;-61
2023/07/29 01:15:55;;;;;;;11.68;5.10;;;;;;;15.56;100.00;98292.66;5137942;28;20500;-63
2023/07/29 01:18:23;;;;;;;15.63;6.40;;;;;;;15.51;100.00;98286.44;5138264;28;20047;-64
2023/07/29 01:20:53;;;;;;;13.85;5.32;;;;;;;15.64;100.00;98266.50;5137860;28;20416;-62
2023/07/29 01:23:24;;;;;;;12.43;5.85;;;;;;;15.36;100.00;98281.53;5138330;28;20134;-61
2023/07/29 01:25:50;;;;;;;14.30;5.75;;;;;;;15.39;100.00;98266.91;5138064;28;20150;-64
2023/07/29 01:28:16;;;;;;;15.23;5.35;;;;;;;15.77;100.00;98259.19;5137946;28;20134;-62
2023/07/29 01:30:44;;;;;;;11.48;5.50;;;;;;;15.92;100.00;98282.59;5137951;28;20200;-61
2023/07/29 01:33:16;;;;;;;10.13;5.28;;;;;;;15.51;100.00;98302.22;5137849;28;20047;-64
2023/07/29 01:35:47;;;;;;;11.10;8.85;;;;;;;15.69;100.00;98263.28;5137828;28;20373;-63
2023/07/29 01:38:18;;;;;;;18.92;6.50;;;;;;;15.95;100.00;98267.94;5137658;27;20373;-63
2023/07/29 01:40:45;;;;;;;14.38;6.25;;;;;;;16.13;100.00;98286.97;5137632;28;20116;-61
2023/07/29 01:43:12;;;;;;;11.38;5.80;;;;;;;16.18;100.00;98299.53;5137594;28;20050;-63
2023/07/29 01:45:39;;;;;;;11.50;6.15;;;;;;;16.27;100.00;98313.59;5138025;28;20142;-62
2023/07/29 01:48:05;;;;;;;15.45;6.85;;;;;;;16.25;100.00;98313.22;5137479;28;20054;-62
2023/07/29 01:50:32;;;;;;;10.73;5.75;;;;;;;16.07;100.00;98315.53;5137369;28;20047;-62
2023/07/29 01:52:58;;;;;;;10.20;8.95;;;;;;;16.14;100.00;98321.72;5137749;28;20051;-62
2023/07/29 01:55:24;;;;;;;13.73;6.95;;;;;;;16.19;100.00;98307.41;5137571;28;20082;-61
2023/07/29 01:57:51;;;;;;;8.90;5.50;;;;;;;15.51;100.00;98288.41;5137462;28;20055;-62
2023/07/29 02:00:18;;;;;;;11.38;5.88;;;;;;;16.08;100.00;98253.50;5137294;28;20527;-63
2023/07/29 02:02:44;;;;;;;10.40;5.40;;;;;;;16.30;100.00;98273.25;5137648;28;20078;-63
2023/07/29 02:05:10;;;;;;;11.27;6.78;;;;;;;16.30;100.00;98293.38;5137200;28;20058;-61
2023/07/29 02:07:36;;;;;;;9.82;8.82;;;;;;;16.40;100.00;98306.22;5137544;27;20054;-61
2023/07/29 02:10:02;;;;;;;10.50;9.43;;;;;;;16.46;100.00;98310.06;5137161;28;20062;-61
2023/07/29 02:12:28;;;;;;;12.30;5.63;;;;;;;16.42;100.00;98314.09;5137576;27;20138;-64
2023/07/29 02:14:54;;;;;;;6.90;5.72;;;;;;;16.42;100.00;98305.78;5139772;28;20404;-64
2023/07/29 02:17:20;;;;;;;11.40;9.00;;;;;;;16.08;100.00;98309.56;5141343;28;20154;-63
2023/07/29 02:19:47;;;;;;;10.10;6.25;;;;;;;16.38;100.00;98291.25;5141219;28;20063;-62
2023/07/29 02:22:14;;;;;;;7.18;6.13;;;;;;;16.35;100.00;98301.16;5141022;28;20432;-61
2023/07/29 02:24:40;;;;;;;8.43;6.53;;;;;;;16.26;100.00;98303.75;5140790;28;20376;-62
2023/07/29 02:27:06;;;;;;;11.40;5.82;;;;;;;16.09;100.00;98289.00;5140893;28;20196;-64
2023/07/29 02:29:33;;;;;;;8.90;5.60;;;;;;;16.46;100.00;98279.63;5140644;28;20404;-60
2023/07/29 02:31:59;;;;;;;16.10;10.70;;;;;;;16.46;100.00;98309.25;5140561;28;20488;-63
2023/07/29 02:34:25;;;;;;;9.48;6.25;;;;;;;16.50;100.00;98320.28;5140800;28;20046;-63
2023/07/29 02:36:51;;;;;;;8.30;6.38;;;;;;;16.47;100.00;98330.19;5140423;27;20173;-61
2023/07/29 02:39:17;;;;;;;10.00;6.78;;;;;;;16.42;100.00;98325.94;5140898;28;20143;-61
2023/07/29 02:41:43;;;;;;;8.85;6.75;;;;;;;16.58;100.00;98327.22;5140420;28;20103;-60
2023/07/29 02:44:09;;;;;;;17.58;7.40;;;;;;;16.56;100.00;98330.44;5140866;28;20055;-61
2023/07/29 02:46:35;;;;;;;12.98;8.07;;;;;;;16.65;100.00;98338.16;5140362;28;20062;-62
2023/07/29 02:49:03;;;;;;;16.35;7.70;;;;;;;16.59;100.00;98342.59;5140699;28;20047;-63
2023/07/29 02:51:29;;;;;;;11.23;9.25;;;;;;;16.41;100.00;98349.28;5140542;28;20046;-61
2023/07/29 02:53:55;;;;;;;13.77;8.65;;;;;;;16.56;100.00;98324.09;5140417;28;20137;-61
2023/07/29 02:56:21;;;;;;;13.65;9.20;;;;;;;16.55;100.00;98323.31;5140524;28;20107;-62
2023/07/29 02:58:46;;;;;;;15.88;8.88;;;;;;;16.65;100.00;98329.84;5140069;28;20294;-63
2023/07/29 03:01:12;;;;;;;10.43;8.43;;;;;;;16.50;100.00;98334.88;5140450;28;20094;-62
2023/07/29 03:03:39;;;;;;;15.80;10.38;;;;;;;16.66;100.00;98334.97;5140200;28;20143;-63
2023/07/29 03:06:08;;;;;;;15.90;14.35;;;;;;;16.67;100.00;98344.03;5140370;28;20047;-60
2023/07/29 03:08:34;;;;;;;14.52;10.35;;;;;;;16.73;100.00;98353.41;5140003;28;20328;-63
2023/07/29 03:11:06;;;;;;;20.67;10.73;;;;;;;16.76;100.00;98346.25;5140282;28;20111;-61
2023/07/29 03:13:32;;;;;;;15.35;10.35;;;;;;;16.85;100.00;98363.84;5139986;28;20051;-61
2023/07/29 03:16:05;;;;;;;14.73;10.73;;;;;;;16.87;100.00;98363.44;5140300;28;20066;-62
2023/07/29 03:18:31;;;;;;;15.82;10.55;;;;;;;16.83;100.00;98369.06;5140139;28;20073;-61
2023/07/29 03:20:57;;;;;;;14.80;9.75;;;;;;;16.83;100.00;98382.91;5139799;28;20138;-62
2023/07/29 03:23:23;;;;;;;22.50;17.58;;;;;;;16.89;100.00;98370.13;5139889;28;20142;-62
2023/07/29 03:25:50;;;;;;;19.02;10.60;;;;;;;16.86;100.00;98372.94;5139513;27;20137;-61
2023/07/29 03:28:16;;;;;;;12.85;9.65;;;;;;;16.85;100.00;98355.56;5140100;28;20108;-63
2023/07/29 03:30:42;;;;;;;18.05;10.75;;;;;;;17.06;100.00;98370.16;5139668;28;20090;-62
2023/07/29 03:33:08;;;;;;;17.02;9.77;;;;;;;17.11;100.00;98373.22;5140016;28;20043;-62
2023/07/29 03:35:34;;;;;;;10.77;8.50;;;;;;;17.14;100.00;98379.91;5139481;28;20447;-62
2023/07/29 03:38:00;;;;;;;12.50;8.77;;;;;;;17.19;100.00;98393.22;5139939;27;20160;-62
2023/07/29 03:40:27;;;;;;;14.18;12.50;;;;;;;17.28;100.00;98407.28;5139499;28;20114;-63
2023/07/29 03:42:52;;;;;;;13.32;7.75;;;;;;;17.19;100.00;98429.22;5140002;28;20137;-62
2023/07/29 03:45:18;;;;;;;11.27;8.05;;;;;;;17.32;100.00;98421.84;5139705;28;20058;-63
2023/07/29 03:47:44;;;;;;;13.27;10.73;;;;;;;17.35;100.00;98420.19;5139591;28;20111;-64
2023/07/29 03:50:10;;;;;;;14.32;7.10;;;;;;;17.35;100.00;98431.28;5139604;28;20053;-62
2023/07/29 03:52:36;;;;;;;9.60;6.95;;;;;;;17.51;100.00;98425.00;5139208;28;20133;-62
2023/07/29 03:55:02;;;;;;;12.38;8.68;;;;;;;17.72;100.00;98435.59;5139395;28;20051;-61
2023/07/29 03:57:29;;;;;;;8.95;8.10;;;;;;;18.58;100.00;98453.00;5139346;28;20188;-63
2023/07/29 03:59:55;;;;;;;6.07;4.63;;;;;;;18.84;100.00;98515.03;5139598;28;20082;-64
2023/07/29 04:02:21;;;;;;;7.80;6.97;;;;;;;19.26;100.00;98537.34;5139234;28;20051;-63
2023/07/29 04:04:48;;;;;;;6.63;4.65;;;;;;;19.17;100.00;98512.94;5139547;28;20055;-61
2023/07/29 04:07:14;;;;;;;5.90;3.97;;;;;;;19.08;100.00;98495.34;5139062;27;20055;-63
2023/07/29 04:09:40;;;;;;;6.93;5.38;;;;;;;18.81;100.00;98493.69;5139459;28;20047;-61
2023/07/29 04:12:06;;;;;;;7.45;4.93;;;;;;;18.68;100.00;98507.44;5139049;28;20357;-63
2023/07/29 04:14:33;;;;;;;7.68;4.47;;;;;;;18.56;100.00;98514.50;5139312;28;20101;-63
2023/07/29 04:16:59;;;;;;;8.02;4.80;;;;;;;18.48;100.00;98526.19;5139247;28;20051;-61
2023/07/29 04:19:25;;;;;;;7.15;6.45;;;;;;;18.56;100.00;98527.59;5139094;28;20047;-62
2023/07/29 04:21:51;;;;;;;4.78;4.28;;;;;;;18.42;100.00;98523.16;5139162;28;20093;-63
2023/07/29 04:24:16;;;;;;;5.03;3.78;;;;;;;18.41;100.00;98521.59;5138741;28;20062;-64
2023/07/29 04:26:43;;;;;;;7.13;4.30;;;;;;;18.53;100.00;98536.81;5138919;28;20409;-62
2023/07/29 04:29:09;;;;;;;5.07;4.30;;;;;;;18.63;100.00;98538.53;5138677;28;20055;-61
2023/07/29 04:31:35;;;;;;;4.13;3.72;;;;;;;19.09;100.00;98517.13;5139074;28;20175;-61
2023/07/29 04:34:02;;;;;;;6.28;3.90;;;;;;;19.31;100.00;98475.66;5138751;28;20066;-62
2023/07/29 04:36:28;;;;;;;4.68;3.70;;;;;;;19.25;100.00;98430.94;5137997;27;20043;-62
2023/07/29 04:38:54;;;;;;;5.22;4.50;;;;;;;19.13;100.00;98423.38;5138569;28;20131;-63
2023/07/29 04:41:20;;;;;;;5.40;3.90;;;;;;;19.14;100.00;98413.03;5138949;28;20138;-64
2023/07/29 04:43:45;;;;;;;7.00;4.18;;;;;;;18.74;100.00;98441.09;5138462;28;20078;-64
2023/07/29 04:46:11;;;;;;;7.97;6.05;;;;;;;18.92;100.00;98460.84;5138713;28;20085;-64
2023/07/29 04:48:38;;;;;;;5.07;3.80;;;;;;;19.00;100.00;98455.88;5138423;28;20428;-63
2023/07/29 04:51:04;;;;;;;5.03;3.58;;;;;;;18.99;100.00;98457.09;5138273;28;20061;-63
2023/07/29 04:53:30;;;;;;;4.63;3.80;;;;;;;19.36;100.00;98415.94;5138678;28;20134;-63
2023/07/29 04:55:56;;;;;;;4.65;3.60;;;;;;;19.61;100.00;98354.03;5138420;28;20127;-63
2023/07/29 04:58:22;;;;;;;3.83;3.42;;;;;;;19.81;100.00;98287.09;5138622;28;20057;-62
2023/07/29 05:00:48;;;;;;;6.03;2.92;;;;;;;19.89;100.00;98241.91;5138254;28;20137;-62
2023/07/29 05:03:14;;;;;;;6.50;3.15;;;;;;;20.09;100.00;98074.69;5138569;28;20053;-63
2023/07/29 05:05:40;;;;;;;3.85;2.85;;;;;;;20.19;100.00;97930.78;5138225;28;20047;-64
2023/07/29 05:08:06;;;;;;;4.25;3.22;;;;;;;20.69;100.00;97839.63;5137969;27;20136;-64
2023/07/29 05:10:32;;;;;;;3.10;2.75;;;;;;;21.79;100.00;97453.63;5137978;28;20404;-64
2023/07/29 05:12:58;;;;;;;4.35;2.65;;;;;;;21.57;100.00;97290.28;5138446;28;20405;-64
2023/07/29 05:15:24;;;;;;;3.42;3.13;;;;;;;21.69;100.00;97213.13;5138414;28;20159;-63
2023/07/29 05:17:50;;;;;;;3.95;2.72;;;;;;;21.64;100.00;97207.50;5137905;28;20195;-62
2023/07/29 05:20:16;;;;;;;3.00;2.50;;;;;;;21.67;100.00;97200.94;5137962;28;20055;-61
2023/07/29 05:22:42;;;;;;;3.22;2.70;;;;;;;21.76;100.00;97162.53;5137877;28;20443;-64
2023/07/29 05:25:09;;;;;;;5.65;2.22;;;;;;;21.62;100.00;97171.72;5138230;28;20047;-61
2023/07/29 05:27:35;;;;;;;2.78;2.25;;;;;;;21.38;100.00;97272.25;5137859;28;20065;-63
2023/07/29 05:30:01;;;;;;;3.45;2.70;;;;;;;21.29;100.00;97213.81;5138122;28;20384;-64
2023/07/29 05:32:27;;;;;;;2.30;2.10;;;;;;;21.33;100.00;97208.81;5137788;28;20306;-64
2023/07/29 05:34:53;;;;;;;2.72;2.47;;;;;;;21.28;100.00;97240.91;5138040;28;20412;-63
2023/07/29 05:37:19;;;;;;;2.50;2.30;;;;;;;20.79;100.00;97258.34;5137664;27;20130;-64
2023/07/29 05:39:45;;;;;;;2.78;2.40;;;;;;;20.64;100.00;97316.81;5138091;28;20141;-62
2023/07/29 05:42:11;;;;;;;3.88;3.10;;;;;;;20.32;100.00;97385.97;5137545;28;20061;-62
2023/07/29 05:44:37;;;;;;;3.90;2.80;;;;;;;20.13;100.00;97501.41;5137683;28;20051;-61
2023/07/29 05:47:03;;;;;;;4.88;2.88;;;;;;;20.00;100.00;97618.44;5137707;27;20043;-62
2023/07/29 05:49:29;;;;;;;3.58;2.63;;;;;;;19.94;100.00;97598.03;5137577;28;20115;-64
2023/07/29 05:51:55;;;;;;;4.50;2.67;;;;;;;20.15;100.00;97523.94;5137572;28;20391;-63
2023/07/29 05:54:21;;;;;;;3.28;3.00;;;;;;;20.03;100.00;97569.44;5137568;28;20085;-63
2023/07/29 05:56:48;;;;;;;5.50;2.65;;;;;;;20.08;100.00;97555.66;5137739;28;20087;-62
2023/07/29 05:59:14;;;;;;;5.10;3.08;;;;;;;20.03;100.00;97561.88;5137460;28;20130;-62
2023/07/29 06:01:39;;;;;;;3.22;2.72;;;;;;;20.02;100.00;97693.81;5137630;28;20454;-61
2023/07/29 06:04:05;;;;;;;4.85;2.33;;;;;;;19.97;100.00;97647.94;5137260;28;20106;-61
2023/07/29 06:06:31;;;;;;;3.35;2.90;;;;;;;19.68;100.00;97542.75;5137643;27;20137;-62
2023/07/29 06:08:58;;;;;;;3.00;2.70;;;;;;;19.89;100.00;97554.94;5137132;28;20138;-63
2023/07/29 06:11:23;;;;;;;5.68;2.47;;;;;;;19.67;100.00;97623.88;5137682;28;20070;-62
2023/07/29 06:13:50;;;;;;;6.57;2.88;;;;;;;19.77;100.00;97680.25;5137128;28;20420;-61
2023/07/29 06:16:16;;;;;;;2.65;2.45;;;;;;;19.87;100.00;97768.00;5137387;28;20084;-62
2023/07/29 06:18:42;;;;;;;2.70;2.50;;;;;;;19.67;100.00;97735.06;5137378;28;20275;-62
2023/07/29 06:21:11;;;;;;;3.30;2.95;;;;;;;19.66;100.00;97737.06;5137260;28;20057;-61
2023/07/29 06:23:37;;;;;;;2.75;2.50;;;;;;;19.55;100.00;97778.41;5137373;28;20490;-62
2023/07/29 06:26:03;;;;;;;2.60;2.40;;;;;;;19.55;100.00;97745.03;5137194;28;20074;-63
2023/07/29 06:28:29;;;;;;;6.32;2.88;;;;;;;19.35;100.00;97870.50;5137324;28;20395;-64
2023/07/29 06:30:55;;;;;;;2.67;2.40;;;;;;;19.34;100.00;98119.03;5136921;28;20053;-63
2023/07/29 06:33:21;;;;;;;3.00;2.80;;;;;;;19.43;100.00;98030.19;5137344;28;20074;-64
2023/07/29 06:35:47;;;;;;;5.57;2.95;;;;;;;19.48;100.00;98076.06;5136860;28;20424;-62
2023/07/29 06:38:13;;;;;;;7.07;2.60;;;;;;;19.47;100.00;98019.72;5137255;27;20093;-62
2023/07/29 06:40:39;;;;;;;2.80;2.60;;;;;;;19.41;100.00;97985.41;5136882;28;20055;-63
2023/07/29 06:43:05;;;;;;;4.55;2.70;;;;;;;19.11;100.00;97956.31;5136711;28;20448;-63
2023/07/29 06:45:31;;;;;;;3.28;2.60;;;;;;;19.27;100.00;97980.38;5137014;28;20149;-64
2023/07/29 06:47:58;;;;;;;3.70;2.53;;;;;;;19.61;100.00;98004.53;5136948;28;20063;-64
2023/07/29 06:50:24;;;;;;;3.58;2.75;;;;;;;19.63;100.00;97896.44;5136747;28;20146;-64
2023/07/29 06:52:50;;;;;;;3.92;2.25;;;;;;;19.60;100.00;97877.09;5136869;28;20055;-63
2023/07/29 06:55:16;;;;;;;2.95;2.75;;;;;;;19.67;100.00;97847.03;5136950;28;20047;-63
2023/07/29 06:57:42;;;;;;;3.75;2.88;;;;;;;19.59;100.00;97895.00;5136597;28;20138;-62
2023/07/29 07:00:09;;;;;;;3.33;3.03;;;;;;;19.73;100.00;97950.88;5138500;27;20065;-62
2023/07/29 07:02:35;;;;;;;2.92;2.50;;;;;;;19.86;100.00;97897.94;5140212;28;20058;-61
2023/07/29 07:05:01;;;;;;;5.53;2.60;;;;;;;19.89;100.00;97860.06;5140491;28;20405;-63
2023/07/29 07:07:27;;;;;;;2.90;2.67;;;;;;;20.04;100.00;97743.44;5139956;27;20153;-62
2023/07/29 07:09:54;;;;;;;2.97;2.70;;;;;;;19.99;100.00;97697.53;5140370;28;20401;-62
2023/07/29 07:12:20;;;;;;;3.65;2.70;;;;;;;19.94;100.00;97795.50;5139941;28;20146;-62
2023/07/29 07:14:46;;;;;;;3.10;2.70;;;;;;;20.02;100.00;97701.41;5139983;28;20203;-63
2023/07/29 07:17:12;;;;;;;3.33;2.60;;;;;;;19.98;100.00;97621.66;5140186;28;20432;-64
2023/07/29 07:19:38;;;;;;;3.30;3.00;;;;;;;20.00;100.00;97735.25;5140076;28;20057;-64
2023/07/29 07:22:04;;;;;;;4.65;2.70;;;;;;;20.20;100.00;97567.84;5140152;28;20074;-63
2023/07/29 07:24:30;;;;;;;3.42;2.75;;;;;;;20.34;100.00;97539.34;5139793;28;20057;-63
2023/07/29 07:26:56;;;;;;;5.68;2.85;;;;;;;20.26;100.00;97618.84;5140021;28;20050;-61
2023/07/29 07:29:22;;;;;;;4.00;2.38;;;;;;;20.31;100.00;97437.31;5139682;28;20082;-61
2023/07/29 07:31:51;;;;;;;5.47;2.97;;;;;;;20.40;100.00;97405.91;5140089;28;20062;-61
2023/07/29 07:34:17;;;;;;;3.95;2.70;;;;;;;20.83;100.00;97409.31;5139642;28;20386;-63
2023/07/29 07:36:43;;;;;;;2.90;2.40;;;;;;;21.34;100.00;97338.56;5140034;27;20055;-63
2023/07/29 07:39:10;;;;;;;3.15;2.47;;;;;;;21.42;100.00;97278.38;5139553;28;20427;-64
2023/07/29 07:41:36;;;;;;;3.03;2.75;;;;;;;21.84;100.00;97215.84;5139974;28;20055;-64
2023/07/29 07:44:02;;;;;;;3.17;2.97;;;;;;;21.98;100.00;97156.41;5139507;28;20370;-64
2023/07/29 07:46:28;;;;;;;4.90;2.40;;;;;;;22.78;100.00;97186.66;5139609;28;20051;-62
2023/07/29 07:48:54;;;;;;;4.20;2.42;;;;;;;22.69;100.00;97212.75;5139724;28;20142;-63
2023/07/29 07:51:20;;;;;;;3.35;3.05;;;;;;;22.30;100.00;97237.47;5139419;28;20142;-61
2023/07/29 07:53:46;;;;;;;2.65;2.40;;;;;;;22.02;100.00;97187.66;5139464;28;20119;-61
2023/07/29 07:56:13;;;;;;;2.85;2.40;;;;;;;22.26;100.00;97175.53;5139391;28;20103;-62
2023/07/29 07:58:38;;;;;;;2.80;2.60;;;;;;;21.66;100.00;97168.72;5139673;28;20139;-62
2023/07/29 08:01:06;;;;;;;3.33;2.60;;;;;;;21.67;100.00;97165.44;5139279;28;20055;-62
2023/07/29 08:03:32;;;;;;;4.50;2.80;;;;;;;21.55;100.00;97198.00;5139578;28;20146;-63
2023/07/29 08:05:58;;;;;;;2.28;2.03;;;;;;;23.33;100.00;97266.66;5139160;28;20134;-65
2023/07/29 08:08:25;;;;;;;4.85;2.35;;;;;;;23.04;100.00;97322.81;5139482;27;20471;-62
2023/07/29 08:10:52;;;;;;;4.18;2.55;;;;;;;22.52;100.00;97366.16;5137909;27;20062;-63
2023/07/29 08:13:19;;;;;;;3.88;2.53;;;;;;;22.46;100.00;97315.06;5138905;28;20147;-62
2023/07/29 08:15:47;;;;;;;8.93;2.58;;;;;;;22.72;100.00;97303.16;5139265;28;20137;-61
2023/07/29 08:18:13;;;;;;;3.35;2.72;;;;;;;22.69;100.00;97320.88;5139110;28;20047;-64
2023/07/29 08:20:39;;;;;;;3.47;2.38;;;;;;;22.82;100.00;97317.72;5139246;28;20369;-63
2023/07/29 08:23:05;;;;;;;2.42;2.22;;;;;;;23.07;100.00;97316.22;5139019;28;20063;-61
2023/07/29 08:25:31;;;;;;;2.58;2.35;;;;;;;22.96;100.00;97250.59;5139233;28;20134;-63
2023/07/29 08:27:57;;;;;;;3.00;2.53;;;;;;;23.38;100.00;97279.13;5138798;28;20066;-65
2023/07/29 08:30:24;;;;;;;2.67;2.17;;;;;;;24.05;100.00;97413.91;5139021;28;20051;-62
2023/07/29 08:32:50;;;;;;;3.17;2.20;;;;;;;23.57;100.00;97498.44;5138629;28;20328;-63
2023/07/29 08:35:16;;;;;;;2.35;2.15;;;;;;;23.68;100.00;97514.59;5139098;28;20047;-62
2023/07/29 08:37:42;;;;;;;3.22;2.10;;;;;;;23.38;100.00;97484.00;5138683;27;20142;-63
2023/07/29 08:40:11;;;;;;;2.35;2.15;;;;;;;23.33;100.00;97472.78;5138933;28;20200;-64
2023/07/29 08:42:39;;;;;;;3.15;2.60;;;;;;;23.10;100.00;97446.59;5138511;28;20078;-63
2023/07/29 08:45:07;;;;;;;2.95;2.60;;;;;;;22.43;100.00;97368.34;5138690;28;20129;-61
2023/07/29 08:47:34;;;;;;;4.88;3.50;;;;;;;22.40;100.00;97319.06;5138743;28;20066;-65
2023/07/29 08:50:02;;;;;;;2.88;2.50;;;;;;;22.62;100.00;97346.47;5138483;28;20142;-63
2023/07/29 08:52:29;;;;;;;4.00;2.28;;;;;;;22.88;100.00;97378.00;5138780;28;20141;-62
2023/07/29 08:54:55;;;;;;;3.00;2.75;;;;;;;22.95;100.00;97441.09;5138411;28;20139;-62
2023/07/29 08:57:23;;;;;;;2.92;2.63;;;;;;;22.96;100.00;97462.97;5138565;28;20416;-61
2023/07/29 08:59:51;;;;;;;3.70;3.35;;;;;;;23.02;100.00;97455.41;5138262;28;20141;-64
2023/07/29 09:02:18;;;;;;;2.47;2.28;;;;;;;22.81;100.00;97464.25;5138612;28;20389;-64
2023/07/29 09:04:45;;;;;;;3.20;2.90;;;;;;;22.94;100.00;97392.81;5138065;28;20447;-63
2023/07/29 09:07:11;;;;;;;2.70;2.50;;;;;;;23.25;100.00;97430.50;5138343;27;20405;-64
2023/07/29 09:09:36;;;;;;;5.93;3.17;;;;;;;23.15;100.00;97482.22;5138161;28;20111;-62
2023/07/29 09:12:03;;;;;;;4.47;2.40;;;;;;;23.06;100.00;97435.66;5138229;28;20631;-61
2023/07/29 09:14:29;;;;;;;7.35;2.83;;;;;;;22.78;100.00;97466.78;5138367;28;20131;-62
2023/07/29 09:16:55;;;;;;;2.50;2.00;;;;;;;24.21;100.00;97576.91;5138128;28;20134;-63
2023/07/29 09:19:23;;;;;;;6.57;2.00;;;;;;;24.77;100.00;97698.63;5138320;28;20415;-63
2023/07/29 09:21:50;;;;;;;2.30;1.50;;;;;;;25.05;100.00;97785.75;5137944;27;20047;-63
2023/07/29 09:24:17;;;;;;;3.35;1.90;;;;;;;25.69;100.00;97845.47;5137919;28;20051;-62
2023/07/29 09:26:49;;;;;;;4.40;2.33;;;;;;;26.33;100.00;97848.16;5137929;28;20055;-63
2023/07/29 09:29:15;;;;;;;2.15;1.95;;;;;;;26.06;100.00;97836.28;5138259;28;20055;-65
2023/07/29 09:31:41;;;;;;;6.75;3.30;;;;;;;26.13;100.00;97779.63;5137730;28;20047;-64
2023/07/29 09:34:08;;;;;;;1.83;1.73;;;;;;;26.80;100.00;97854.22;5138026;28;20043;-63
2023/07/29 09:36:35;;;;;;;4.22;2.20;;;;;;;26.84;100.00;97908.91;5137848;27;20055;-63
2023/07/29 09:39:03;;;;;;;2.53;2.00;;;;;;;26.29;100.00;97885.69;5137458;28;20145;-64
2023/07/29 09:41:30;;;;;;;2.33;2.13;;;;;;;27.07;100.00;97923.06;5137770;28;20066;-62
2023/07/29 09:43:57;;;;;;;3.05;1.50;;;;;;;26.12;100.00;97917.72;5137499;28;20420;-62
2023/07/29 09:46:25;;;;;;;4.00;2.40;;;;;;;26.51;100.00;97895.50;5137848;28;20066;-60
2023/07/29 09:48:55;;;;;;;3.85;1.88;;;;;;;26.46;100.00;97902.63;5137613;28;20111;-61
2023/07/29 09:51:22;;;;;;;2.00;1.88;;;;;;;25.75;100.00;97868.69;5137640;28;20051;-60
2023/07/29 09:53:49;;;;;;;2.95;2.10;;;;;;;25.60;100.00;97887.75;5137388;28;20050;-59
2023/07/29 09:56:16;;;;;;;4.32;2.40;;;;;;;25.54;100.00;97802.75;5138020;28;20100;-62
2023/07/29 09:58:45;;;;;;;4.57;2.72;;;;;;;26.02;100.00;97870.22;5137371;28;20097;-60
2023/07/29 10:01:11;;;;;;;3.58;2.92;;;;;;;25.36;100.00;97806.72;5137512;28;20128;-59
2023/07/29 10:03:37;;;;;;;4.07;2.00;;;;;;;25.19;100.00;97857.06;5137250;28;20409;-61
2023/07/29 10:06:05;;;;;;;3.03;2.40;;;;;;;25.38;100.00;97831.44;5137377;28;20142;-59
2023/07/29 10:08:32;;;;;;;4.05;2.20;;;;;;;25.49;100.00;97865.97;5137489;27;20352;-60
2023/07/29 10:11:02;;;;;;;6.35;2.80;;;;;;;25.08;100.00;97854.09;5137267;28;20200;-61
2023/07/29 10:13:29;;;;;;;5.68;3.00;;;;;;;24.84;100.00;97841.13;5137381;28;20051;-61
2023/07/29 10:15:55;;;;;;;3.42;2.75;;;;;;;24.65;100.00;97829.44;5137033;28;20047;-62
2023/07/29 10:18:22;;;;;;;2.95;2.38;;;;;;;24.80;100.00;97834.97;5137494;28;20111;-61
2023/07/29 10:20:50;;;;;;;3.58;2.35;;;;;;;24.37;100.00;97859.16;5137121;28;20082;-59
2023/07/29 10:23:18;;;;;;;2.35;2.03;;;;;;;24.10;100.00;97858.31;5137411;28;20043;-63
2023/07/29 10:25:50;;;;;;;3.28;2.53;;;;;;;23.75;100.00;97810.72;5137008;28;20130;-64
2023/07/29 10:28:18;;;;;;;7.13;2.28;;;;;;;23.29;100.00;97813.31;5136953;28;20047;-64
2023/07/29 10:30:45;;;;;;;2.28;2.00;;;;;;;23.17;100.00;97801.94;5137144;28;20058;-63
2023/07/29 10:33:12;;;;;;;2.60;2.10;;;;;;;23.46;100.00;97789.19;5137014;28;20043;-64
2023/07/29 10:35:38;;;;;;;2.90;2.15;;;;;;;24.34;100.00;97863.69;5139571;27;20137;-62
2023/07/29 10:38:05;;;;;;;2.45;2.22;;;;;;;24.98;100.00;97892.75;5140481;27;20083;-62
2023/07/29 10:40:46;;;;;;;5.68;2.83;;;;;;;25.77;100.00;97885.06;5140650;28;20082;-64
2023/07/29 10:43:18;;;;;;;6.43;2.67;;;;;;;26.18;100.00;97941.78;5140468;28;20043;-62
2023/07/29 10:45:45;;;;;;;4.43;2.42;;;;;;;26.79;100.00;97940.59;5140813;28;20078;-63
2023/07/29 10:48:12;;;;;;;7.35;3.40;;;;;;;26.82;100.00;97955.69;5140304;28;20066;-63
2023/07/29 10:50:38;;;;;;;2.97;2.70;;;;;;;26.75;100.00;97976.59;5140689;28;20316;-64
2023/07/29 10:53:05;;;;;;;3.22;2.53;;;;;;;25.92;100.00;97969.16;5140277;28;20047;-63
2023/07/29 10:55:34;;;;;;;3.42;2.33;;;;;;;25.99;100.00;97988.34;5140198;28;20379;-63
2023/07/29 10:58:09;;;;;;;4.55;2.50;;;;;;;25.41;100.00;97998.78;5140327;28;20047;-63
2023/07/29 11:00:35;;;;;;;5.55;2.90;;;;;;;25.26;100.00;97968.78;5140236;28;20071;-64
2023/07/29 11:03:03;;;;;;;4.10;3.17;;;;;;;25.09;100.00;97951.75;5140543;28;20142;-61
2023/07/29 11:05:43;;;;;;;2.88;2.42;;;;;;;24.79;100.00;97936.34;5140094;28;20058;-64
2023/07/29 11:08:24;;;;;;;4.55;2.85;;;;;;;24.86;100.00;97907.91;5140392;27;20093;-63
2023/07/29 11:11:01;;;;;;;2.28;2.00;;;;;;;25.24;100.00;97979.72;5139892;28;20051;-63
2023/07/29 11:13:28;;;;;;;5.32;2.58;;;;;;;24.91;100.00;97979.31;5140206;28;20067;-63
2023/07/29 11:15:56;;;;;;;3.33;2.67;;;;;;;24.64;100.00;97986.88;5140060;28;20143;-62
2023/07/29 11:18:26;;;;;;;8.30;3.10;;;;;;;24.72;100.00;97959.19;5140079;28;20102;-61
2023/07/29 11:20:54;;;;;;;4.38;2.22;;;;;;;24.51;100.00;97908.00;5140045;28;20408;-62